createdAt,value
2019-01-11T00:02:23.917Z,3.77
2019-01-11T00:04:53.561Z,4.12
2019-01-11T00:07:24.159Z,4.65
2019-01-11T00:09:53.821Z,8.20
2019-01-11T00:12:23.700Z,6.25
2019-01-11T00:14:53.338Z,6.15
2019-01-11T00:17:23.025Z,6.12
2019-01-11T00:19:52.597Z,6.00
2019-01-11T00:22:22.107Z,6.05
2019-01-11T00:24:51.798Z,7.00
2019-01-11T00:27:21.451Z,9.20
2019-01-11T00:29:51.176Z,8.50
2019-01-11T00:32:20.747Z,12.07
2019-01-11T00:34:50.290Z,9.70
2019-01-11T00:37:19.843Z,9.08
2019-01-11T00:39:49.498Z,9.10
2019-01-11T00:42:19.115Z,13.20
2019-01-11T00:44:48.723Z,9.48
2019-01-11T00:47:18.372Z,9.55
2019-01-11T00:49:48.081Z,10.05
2019-01-11T00:52:18.054Z,11.08
2019-01-11T00:54:47.870Z,8.78
2019-01-11T00:57:17.446Z,9.05
2019-01-11T00:59:47.118Z,11.48
2019-01-11T01:02:16.849Z,12.63
2019-01-11T01:04:46.606Z,12.00
2019-01-11T01:07:16.215Z,8.23
2019-01-11T01:09:45.926Z,10.08
2019-01-11T01:12:15.459Z,10.48
2019-01-11T01:14:45.022Z,11.95
2019-01-11T01:17:14.558Z,12.85
2019-01-11T01:19:44.180Z,9.23
2019-01-11T01:22:13.874Z,11.18
2019-01-11T01:24:43.395Z,9.60
2019-01-11T01:27:12.984Z,11.30
2019-01-11T01:29:42.588Z,14.53
2019-01-11T01:32:12.171Z,13.40
2019-01-11T01:34:41.867Z,13.10
2019-01-11T01:37:11.523Z,12.60
2019-01-11T01:39:41.186Z,12.70
2019-01-11T01:42:10.694Z,10.30
2019-01-11T01:44:41.252Z,12.82
2019-01-11T01:47:10.856Z,14.63
2019-01-11T01:49:40.593Z,11.25
2019-01-11T01:52:10.072Z,11.30
2019-01-11T01:54:39.751Z,13.65
2019-01-11T01:57:09.262Z,8.75
2019-01-11T01:59:38.785Z,12.82
2019-01-11T02:02:08.368Z,13.65
2019-01-11T02:04:37.900Z,11.78
2019-01-11T02:07:07.580Z,11.57
2019-01-11T02:09:37.050Z,10.32
2019-01-11T02:12:06.775Z,9.63
2019-01-11T02:14:36.329Z,10.05
2019-01-11T02:17:07.062Z,12.63
2019-01-11T02:19:36.622Z,8.98
2019-01-11T02:22:06.601Z,10.85
2019-01-11T02:24:36.324Z,10.63
2019-01-11T02:27:06.044Z,11.12
2019-01-11T02:29:35.581Z,12.33
2019-01-11T02:32:05.557Z,12.75
2019-01-11T02:34:35.321Z,12.13
2019-01-11T02:37:05.042Z,13.32
2019-01-11T02:39:34.573Z,10.90
2019-01-11T02:42:04.250Z,15.08
2019-01-11T02:44:33.985Z,13.30
2019-01-11T02:47:03.596Z,12.33
2019-01-11T02:49:39.805Z,13.65
2019-01-11T02:52:04.655Z,13.43
2019-01-11T02:54:35.701Z,11.70
2019-01-11T02:57:05.807Z,15.18
2019-01-11T02:59:35.400Z,15.38
2019-01-11T03:02:05.314Z,14.45
2019-01-11T03:04:35.010Z,11.43
2019-01-11T03:07:04.687Z,15.05
2019-01-11T03:09:34.470Z,12.60
2019-01-11T03:12:04.097Z,13.78
2019-01-11T03:14:33.658Z,15.18
2019-01-11T03:17:03.141Z,14.47
2019-01-11T03:19:32.771Z,13.93
2019-01-11T03:22:02.340Z,16.35
2019-01-11T03:24:32.143Z,17.48
2019-01-11T03:27:01.695Z,17.73
2019-01-11T03:29:31.303Z,17.73
2019-01-11T03:32:01.012Z,16.73
2019-01-11T03:34:31.487Z,15.78
2019-01-11T03:37:01.043Z,20.00
2019-01-11T03:39:31.681Z,13.83
2019-01-11T03:42:19.746Z,18.57
2019-01-11T03:44:49.427Z,16.48
2019-01-11T03:47:19.026Z,18.45
2019-01-11T03:49:54.751Z,22.67
2019-01-11T03:52:21.113Z,18.95
2019-01-11T03:54:50.759Z,17.57
2019-01-11T03:57:20.360Z,21.27
2019-01-11T03:59:49.828Z,16.12
2019-01-11T04:02:19.470Z,18.95
2019-01-11T04:04:49.103Z,15.53
2019-01-11T04:07:18.693Z,16.25
2019-01-11T04:09:48.197Z,16.30
2019-01-11T04:12:17.905Z,16.85
2019-01-11T04:14:47.614Z,16.40
2019-01-11T04:17:17.362Z,18.90
2019-01-11T04:19:47.017Z,15.63
2019-01-11T04:22:26.931Z,15.88
2019-01-11T04:25:10.937Z,12.37
2019-01-11T04:27:40.579Z,16.50
2019-01-11T04:30:14.858Z,15.55
2019-01-11T04:32:44.474Z,16.37
2019-01-11T04:35:14.329Z,15.23
2019-01-11T04:37:44.118Z,16.60
2019-01-11T04:40:15.304Z,15.30
2019-01-11T04:42:44.973Z,16.07
2019-01-11T04:45:14.578Z,12.43
2019-01-11T04:47:44.217Z,13.50
2019-01-11T04:50:16.725Z,14.80
2019-01-11T04:52:46.624Z,14.03
2019-01-11T04:55:17.430Z,16.60
2019-01-11T04:57:46.958Z,17.15
2019-01-11T05:00:21.500Z,17.12
2019-01-11T05:02:51.386Z,16.02
2019-01-11T05:05:21.070Z,17.52
2019-01-11T05:07:50.690Z,19.62
2019-01-11T05:10:21.383Z,23.27
2019-01-11T05:12:50.991Z,19.70
2019-01-11T05:15:20.606Z,20.40
2019-01-11T05:17:50.279Z,25.27
2019-01-11T05:20:19.921Z,21.57
2019-01-11T05:22:49.730Z,25.80
2019-01-11T05:25:19.367Z,20.08
2019-01-11T05:27:51.192Z,24.50
2019-01-11T05:30:23.005Z,22.48
2019-01-11T05:32:52.531Z,26.65
2019-01-11T05:35:22.524Z,29.15
2019-01-11T05:38:11.299Z,25.00
2019-01-11T05:40:41.036Z,29.60
2019-01-11T05:43:10.688Z,25.23
2019-01-11T05:45:41.733Z,26.60
2019-01-11T05:48:11.298Z,27.60
2019-01-11T05:50:41.037Z,30.48
2019-01-11T05:53:10.761Z,22.65
2019-01-11T05:55:47.532Z,28.98
2019-01-11T05:58:41.997Z,25.15
2019-01-11T06:01:12.169Z,32.70
2019-01-11T06:03:41.903Z,26.17
2019-01-11T06:06:12.161Z,26.10
2019-01-11T06:08:42.195Z,24.25
2019-01-11T06:11:12.727Z,34.95
2019-01-11T06:13:42.826Z,29.40
2019-01-11T06:16:13.066Z,27.73
2019-01-11T06:18:42.748Z,37.65
2019-01-11T06:21:12.709Z,28.00
2019-01-11T06:23:45.638Z,33.08
2019-01-11T06:26:15.257Z,32.93
2019-01-11T06:28:44.802Z,32.63
2019-01-11T06:31:14.735Z,34.60
2019-01-11T06:33:44.344Z,32.90
2019-01-11T06:36:13.983Z,39.50
2019-01-11T06:38:43.717Z,32.67
2019-01-11T06:41:13.761Z,36.03
2019-01-11T06:43:52.009Z,39.10
2019-01-11T06:46:23.524Z,41.83
2019-01-11T06:48:53.017Z,36.20
2019-01-11T06:51:22.624Z,35.20
2019-01-11T06:53:52.242Z,33.80
2019-01-11T06:56:22.047Z,38.58
2019-01-11T06:58:51.784Z,36.95
2019-01-11T07:01:21.539Z,34.27
2019-01-11T07:03:51.454Z,34.43
2019-01-11T07:06:20.961Z,33.33
2019-01-11T07:08:50.608Z,35.30
2019-01-11T07:11:20.381Z,36.35
2019-01-11T07:13:50.287Z,49.05
2019-01-11T07:16:20.824Z,36.55
2019-01-11T07:18:50.395Z,38.23
2019-01-11T07:21:20.347Z,36.83
2019-01-11T07:23:49.914Z,38.88
2019-01-11T07:26:20.584Z,36.70
2019-01-11T07:28:50.573Z,38.10
2019-01-11T07:31:23.933Z,52.27
2019-01-11T07:33:54.059Z,42.70
2019-01-11T07:36:31.662Z,40.05
2019-01-11T07:39:02.281Z,39.55
2019-01-11T07:41:32.512Z,37.17
2019-01-11T07:44:02.484Z,43.75
2019-01-11T07:46:32.341Z,40.98
2019-01-11T07:49:02.286Z,41.53
2019-01-11T07:51:31.914Z,44.90
2019-01-11T07:54:02.205Z,47.20
2019-01-11T07:56:31.783Z,42.70
2019-01-11T07:59:01.453Z,46.65
2019-01-11T08:01:35.622Z,39.95
2019-01-11T08:04:06.210Z,46.90
2019-01-11T08:06:35.745Z,42.30
2019-01-11T08:09:08.197Z,46.37
2019-01-11T08:11:37.901Z,46.80
2019-01-11T08:14:08.509Z,47.65
2019-01-11T08:16:38.137Z,47.67
2019-01-11T08:19:07.838Z,38.67
2019-01-11T08:21:37.955Z,44.93
2019-01-11T08:24:07.823Z,48.78
2019-01-11T08:26:37.430Z,45.25
2019-01-11T08:29:07.327Z,44.45
2019-01-11T08:31:36.864Z,50.55
2019-01-11T08:34:06.783Z,45.90
2019-01-11T08:36:36.643Z,45.75
2019-01-11T08:39:09.030Z,55.67
2019-01-11T08:41:38.806Z,51.25
2019-01-11T08:44:08.515Z,44.18
2019-01-11T08:46:38.114Z,47.95
2019-01-11T08:49:07.775Z,50.98
2019-01-11T08:51:37.516Z,60.50
2019-01-11T08:54:07.177Z,44.48
2019-01-11T08:56:36.797Z,46.15
2019-01-11T08:59:06.841Z,53.68
2019-01-11T09:01:36.491Z,55.40
2019-01-11T09:04:06.196Z,51.23
2019-01-11T09:06:35.931Z,56.75
2019-01-11T09:09:08.788Z,52.03
2019-01-11T09:11:38.309Z,53.92
2019-01-11T09:14:09.667Z,52.83
2019-01-11T09:16:39.362Z,50.55
2019-01-11T09:19:10.083Z,50.30
2019-01-11T09:21:41.697Z,52.15
2019-01-11T09:24:10.903Z,59.83
2019-01-11T09:26:40.494Z,50.12
2019-01-11T09:29:10.382Z,57.23
2019-01-11T09:31:40.050Z,47.80
2019-01-11T09:34:13.799Z,47.93
2019-01-11T09:36:43.963Z,56.65
2019-01-11T09:39:13.562Z,55.25
2019-01-11T09:41:43.296Z,51.13
2019-01-11T09:44:12.991Z,53.02
2019-01-11T09:46:42.643Z,48.35
2019-01-11T09:49:12.575Z,48.52
2019-01-11T09:51:42.676Z,44.90
2019-01-11T09:54:12.637Z,50.20
2019-01-11T09:56:42.303Z,39.85
2019-01-11T09:59:12.045Z,47.85
2019-01-11T10:01:43.375Z,40.63
2019-01-11T10:04:16.875Z,44.83
2019-01-11T10:07:00.188Z,42.88
2019-01-11T10:09:31.138Z,44.05
2019-01-11T10:12:01.753Z,47.17
2019-01-11T10:14:31.394Z,48.65
2019-01-11T10:17:01.184Z,48.08
2019-01-11T10:19:30.853Z,44.03
2019-01-11T10:22:00.618Z,38.78
2019-01-11T10:24:30.453Z,44.03
2019-01-11T10:27:00.116Z,45.95
2019-01-11T10:29:29.755Z,39.63
2019-01-11T10:31:59.390Z,30.23
2019-01-11T10:34:29.275Z,37.10
2019-01-11T10:36:58.854Z,38.23
2019-01-11T10:39:28.521Z,40.75
2019-01-11T10:41:58.233Z,37.00
2019-01-11T10:44:27.720Z,34.92
2019-01-11T10:46:57.534Z,28.50
2019-01-11T10:49:27.319Z,35.28
2019-01-11T10:51:56.910Z,29.63
2019-01-11T10:54:40.687Z,36.83
2019-01-11T10:57:10.350Z,43.08
2019-01-11T10:59:40.089Z,34.83
2019-01-11T11:02:09.520Z,33.92
2019-01-11T11:04:39.221Z,37.42
2019-01-11T11:07:09.119Z,38.20
2019-01-11T11:09:38.800Z,31.70
2019-01-11T11:12:08.949Z,35.50
2019-01-11T11:14:38.583Z,31.33
2019-01-11T11:17:08.207Z,28.62
2019-01-11T11:19:37.824Z,33.70
2019-01-11T11:22:07.476Z,28.27
2019-01-11T11:24:37.392Z,27.10
2019-01-11T11:27:07.343Z,24.82
2019-01-11T11:29:36.956Z,17.85
2019-01-11T11:32:06.886Z,28.15
2019-01-11T11:34:38.730Z,27.67
2019-01-11T11:37:09.320Z,23.27
2019-01-11T11:39:38.962Z,25.97
2019-01-11T11:42:08.661Z,22.30
2019-01-11T11:44:38.338Z,19.77
2019-01-11T11:47:07.928Z,20.85
2019-01-11T11:49:37.552Z,28.45
2019-01-11T11:52:07.240Z,27.62
2019-01-11T11:54:36.921Z,24.12
2019-01-11T11:57:06.392Z,34.55
2019-01-11T11:59:54.880Z,34.85
2019-01-11T12:02:24.452Z,24.15
2019-01-11T12:04:54.471Z,31.37
2019-01-11T12:07:24.092Z,26.50
2019-01-11T12:09:53.893Z,22.87
2019-01-11T12:12:23.903Z,30.62
2019-01-11T12:14:53.606Z,32.05
2019-01-11T12:17:23.353Z,27.30
2019-01-11T12:19:57.012Z,24.23
2019-01-11T12:22:24.272Z,25.37
2019-01-11T12:24:53.998Z,28.38
2019-01-11T12:27:24.051Z,22.65
2019-01-11T12:29:53.730Z,33.78
2019-01-11T12:32:23.593Z,39.60
2019-01-11T12:34:53.284Z,25.80
2019-01-11T12:37:25.659Z,26.23
2019-01-11T12:39:55.346Z,20.65
2019-01-11T12:42:25.568Z,23.10
2019-01-11T12:44:55.264Z,24.35
2019-01-11T12:47:25.341Z,20.23
2019-01-11T12:49:55.403Z,17.95
2019-01-11T12:52:25.337Z,23.45
2019-01-11T12:54:56.293Z,19.00
2019-01-11T12:57:26.280Z,18.82
2019-01-11T12:59:56.100Z,18.98
2019-01-11T13:02:28.243Z,20.12
2019-01-11T13:04:58.299Z,16.23
2019-01-11T13:07:55.490Z,14.33
2019-01-11T13:10:44.594Z,16.27
2019-01-11T13:16:09.270Z,10.88
2019-01-11T13:18:53.828Z,11.73
2019-01-11T13:21:27.475Z,7.62
2019-01-11T13:23:57.400Z,11.30
2019-01-11T13:26:35.039Z,10.18
2019-01-11T13:29:04.910Z,9.50
2019-01-11T13:31:34.647Z,11.63
2019-01-11T13:34:04.810Z,6.25
2019-01-11T13:36:35.550Z,14.83
2019-01-11T13:39:10.064Z,9.40
2019-01-11T13:41:39.917Z,8.63
2019-01-11T13:44:09.436Z,5.37
2019-01-11T13:46:39.063Z,7.75
2019-01-11T13:49:12.286Z,5.25
2019-01-11T13:51:43.109Z,11.08
2019-01-11T13:54:12.807Z,9.50
2019-01-11T13:56:43.662Z,6.45
2019-01-11T13:59:13.197Z,9.93
2019-01-11T14:01:43.009Z,4.17
2019-01-11T14:04:12.709Z,3.60
2019-01-11T14:06:42.375Z,10.58
2019-01-11T14:09:12.058Z,4.28
2019-01-11T14:11:42.323Z,14.65
2019-01-11T14:14:16.863Z,11.88
2019-01-11T14:16:49.683Z,8.73
2019-01-11T14:19:19.527Z,4.35
2019-01-11T14:21:49.240Z,6.25
2019-01-11T14:24:18.899Z,4.25
2019-01-11T14:26:48.397Z,8.98
2019-01-11T14:29:17.975Z,7.03
2019-01-11T14:31:47.892Z,8.20
2019-01-11T14:34:17.518Z,4.17
2019-01-11T14:37:06.523Z,2.55
2019-01-11T14:39:36.205Z,8.28
2019-01-11T14:42:05.808Z,7.92
2019-01-11T14:44:35.793Z,8.60
2019-01-11T14:47:05.496Z,3.47
2019-01-11T14:49:35.429Z,8.55
2019-01-11T14:52:05.315Z,6.60
2019-01-11T14:54:35.184Z,7.95
2019-01-11T14:57:04.891Z,4.10
2019-01-11T14:59:34.942Z,3.70
2019-01-11T15:02:05.240Z,7.85
2019-01-11T15:04:34.982Z,7.15
2019-01-11T15:07:04.958Z,3.10
2019-01-11T15:09:34.723Z,6.28
2019-01-11T15:12:04.639Z,3.85
2019-01-11T15:14:34.483Z,6.17
2019-01-11T15:17:04.144Z,6.67
2019-01-11T15:19:33.789Z,4.22
2019-01-11T15:22:03.451Z,14.25
2019-01-11T15:24:34.138Z,8.33
2019-01-11T15:27:03.736Z,3.98
2019-01-11T15:29:33.560Z,4.03
2019-01-11T15:32:03.197Z,12.37
2019-01-11T15:34:32.884Z,2.45
2019-01-11T15:37:02.508Z,5.65
2019-01-11T15:39:32.036Z,5.62
2019-01-11T15:42:01.933Z,3.92
2019-01-11T15:44:31.472Z,9.38
2019-01-11T15:47:00.986Z,5.30
2019-01-11T15:49:33.756Z,4.55
2019-01-11T15:52:23.892Z,5.83
2019-01-11T15:54:53.477Z,5.35
2019-01-11T15:57:44.569Z,1.80
2019-01-11T16:00:42.202Z,4.90
2019-01-11T16:03:14.570Z,7.58
2019-01-11T16:05:44.468Z,1.95
2019-01-11T16:08:33.276Z,3.05
2019-01-11T16:11:30.642Z,3.47
2019-01-11T16:14:43.572Z,2.47
2019-01-11T16:17:15.151Z,8.60
2019-01-11T16:19:44.960Z,4.83
2019-01-11T16:22:25.979Z,3.42
2019-01-11T16:24:55.764Z,5.65
2019-01-11T16:27:25.222Z,2.72
2019-01-11T16:33:03.258Z,2.37
2019-01-11T16:35:33.055Z,3.05
2019-01-11T16:38:02.928Z,8.13
2019-01-11T16:40:32.824Z,3.87
2019-01-11T16:43:03.169Z,7.20
2019-01-11T16:45:32.840Z,4.25
2019-01-11T16:48:02.513Z,4.03
2019-01-11T16:50:32.200Z,3.60
2019-01-11T16:53:01.829Z,4.30
2019-01-11T16:55:32.676Z,4.72
2019-01-11T16:58:02.448Z,3.60
2019-01-11T17:00:32.002Z,7.78
2019-01-11T17:03:01.807Z,8.23
2019-01-11T17:05:31.474Z,5.47
2019-01-11T17:08:01.192Z,2.70
2019-01-11T17:10:32.291Z,4.80
2019-01-11T17:14:18.039Z,7.30
2019-01-11T17:16:52.303Z,8.13
2019-01-11T17:19:21.980Z,5.45
2019-01-11T17:21:51.949Z,7.87
2019-01-11T17:24:39.603Z,3.25
2019-01-11T17:27:09.278Z,6.53
2019-01-11T17:29:38.958Z,6.05
2019-01-11T17:32:18.309Z,3.92
2019-01-11T17:34:47.981Z,5.53
2019-01-11T17:37:18.146Z,10.53
2019-01-11T17:39:49.748Z,6.40
2019-01-11T17:42:19.372Z,15.13
2019-01-11T17:44:49.145Z,4.60
2019-01-11T17:47:18.932Z,4.90
2019-01-11T17:49:49.517Z,10.60
2019-01-11T17:52:19.098Z,4.70
2019-01-11T17:55:10.986Z,5.20
2019-01-11T17:57:40.730Z,6.45
2019-01-11T18:00:13.552Z,7.45
2019-01-11T18:02:43.350Z,5.20
2019-01-11T18:05:14.053Z,8.88
2019-01-11T18:07:43.780Z,3.60
2019-01-11T18:10:14.072Z,3.33
2019-01-11T18:12:43.813Z,5.40
2019-01-11T18:15:19.281Z,4.33
2019-01-11T18:17:50.562Z,5.03
2019-01-11T18:20:25.840Z,3.92
2019-01-11T18:22:55.931Z,9.08
2019-01-11T18:25:25.524Z,8.70
2019-01-11T18:27:55.266Z,4.80
2019-01-11T18:30:25.532Z,5.25
2019-01-11T18:32:55.193Z,3.47
2019-01-11T18:35:27.424Z,11.28
2019-01-11T18:38:03.534Z,6.05
2019-01-11T18:40:33.359Z,3.70
2019-01-11T18:43:08.072Z,5.95
2019-01-11T18:45:41.833Z,4.30
2019-01-11T18:48:11.762Z,7.83
2019-01-11T18:50:45.204Z,4.87
2019-01-11T18:53:14.799Z,11.05
2019-01-11T18:55:44.401Z,5.12
2019-01-11T18:58:13.952Z,3.60
2019-01-11T19:00:44.472Z,11.12
2019-01-11T19:03:14.135Z,6.47
2019-01-11T19:05:43.629Z,3.98
2019-01-11T19:08:13.472Z,7.35
2019-01-11T19:10:42.992Z,11.35
2019-01-11T19:13:12.570Z,18.85
2019-01-11T19:15:42.246Z,6.83
2019-01-11T19:18:11.928Z,5.05
2019-01-11T19:20:41.464Z,5.60
2019-01-11T19:23:20.156Z,7.15
2019-01-11T19:25:45.467Z,4.62
2019-01-11T19:28:15.177Z,4.62
2019-01-11T19:30:44.674Z,5.78
2019-01-11T19:33:14.466Z,10.13
2019-01-11T19:35:44.466Z,6.72
2019-01-11T19:38:14.048Z,6.22
2019-01-11T19:40:43.572Z,8.68
2019-01-11T19:43:13.091Z,7.55
2019-01-11T19:45:43.426Z,10.00
2019-01-11T19:48:13.258Z,10.35
2019-01-11T19:50:42.927Z,6.00
2019-01-11T19:53:13.193Z,11.85
2019-01-11T19:55:42.807Z,5.83
2019-01-11T19:58:12.411Z,12.03
2019-01-11T20:00:41.997Z,12.07
2019-01-11T20:03:13.772Z,6.33
2019-01-11T20:05:43.538Z,14.58
2019-01-11T20:08:13.682Z,12.60
2019-01-11T20:10:46.739Z,6.40
2019-01-11T20:13:17.738Z,11.93
2019-01-11T20:15:48.326Z,4.12
2019-01-11T20:18:18.192Z,7.40
2019-01-11T20:20:47.840Z,12.93
2019-01-11T20:23:17.630Z,5.65
2019-01-11T20:25:47.408Z,14.28
2019-01-11T20:28:17.395Z,16.55
2019-01-11T20:30:47.484Z,6.30
2019-01-11T20:33:17.053Z,7.08
2019-01-11T20:35:46.862Z,6.65
2019-01-11T20:38:17.270Z,11.95
2019-01-11T20:40:47.044Z,8.68
2019-01-11T20:43:16.853Z,2.67
2019-01-11T20:45:46.561Z,8.65
2019-01-11T20:48:16.432Z,6.60
2019-01-11T20:50:46.050Z,8.05
2019-01-11T20:53:15.869Z,10.68
2019-01-11T20:55:45.624Z,6.47
2019-01-11T20:58:15.873Z,7.10
2019-01-11T21:00:45.512Z,14.87
2019-01-11T21:03:20.620Z,7.28
2019-01-11T21:05:50.424Z,8.45
2019-01-11T21:08:20.058Z,11.08
2019-01-11T21:10:50.061Z,20.10
2019-01-11T21:13:20.054Z,10.50
2019-01-11T21:15:59.607Z,9.55
2019-01-11T21:18:29.189Z,19.57
2019-01-11T21:20:59.306Z,7.47
2019-01-11T21:23:33.445Z,8.65
2019-01-11T21:26:03.073Z,8.55
2019-01-11T21:28:33.306Z,4.95
2019-01-11T21:31:04.105Z,3.40
2019-01-11T21:33:52.830Z,4.78
2019-01-11T21:36:27.971Z,10.38
2019-01-11T21:38:57.915Z,5.78
2019-01-11T21:41:27.774Z,12.45
2019-01-11T21:43:57.709Z,3.77
2019-01-11T21:46:27.530Z,3.90
2019-01-11T21:48:57.743Z,7.87
2019-01-11T21:51:27.488Z,7.45
2019-01-11T21:53:57.463Z,4.47
2019-01-11T21:56:27.894Z,5.08
2019-01-11T21:58:58.265Z,3.60
2019-01-11T22:01:28.410Z,6.12
2019-01-11T22:03:58.597Z,9.63
2019-01-11T22:06:28.628Z,2.65
2019-01-11T22:08:58.498Z,2.33
2019-01-11T22:11:28.015Z,1.95
2019-01-11T22:14:09.255Z,4.33
2019-01-11T22:16:38.848Z,7.45
2019-01-11T22:19:13.651Z,2.42
2019-01-11T22:21:43.420Z,5.42
2019-01-11T22:24:13.003Z,4.10
2019-01-11T22:26:42.812Z,2.67
2019-01-11T22:29:12.421Z,8.68
2019-01-11T22:31:42.396Z,3.47
2019-01-11T22:34:12.209Z,4.83
2019-01-11T22:36:41.857Z,5.22
2019-01-11T22:39:17.047Z,4.70
2019-01-11T22:41:47.639Z,10.48
2019-01-11T22:44:17.202Z,7.90
2019-01-11T22:46:46.779Z,7.03
2019-01-11T22:49:16.340Z,10.32
2019-01-11T22:51:45.879Z,3.40
2019-01-11T22:54:15.482Z,6.05
2019-01-11T22:56:45.199Z,5.87
2019-01-11T22:59:14.809Z,7.47
2019-01-11T23:02:11.973Z,10.95
2019-01-11T23:04:42.641Z,5.25
2019-01-11T23:07:42.430Z,4.33
2019-01-11T23:10:55.742Z,2.22
2019-01-11T23:13:25.350Z,5.75
2019-01-11T23:16:02.059Z,5.85
2019-01-11T23:18:32.998Z,6.35
2019-01-11T23:21:07.867Z,3.98
2019-01-11T23:23:37.537Z,4.72
2019-01-11T23:26:07.366Z,3.08
2019-01-11T23:28:37.300Z,5.58
2019-01-11T23:31:07.055Z,3.15
2019-01-11T23:33:36.631Z,4.83
2019-01-11T23:36:06.385Z,4.45
2019-01-11T23:38:36.173Z,15.60
2019-01-11T23:41:09.721Z,2.42
2019-01-11T23:43:39.454Z,5.22
2019-01-11T23:46:09.657Z,9.13
2019-01-11T23:48:39.516Z,10.23
2019-01-11T23:51:09.396Z,7.60
2019-01-11T23:53:39.386Z,4.37
2019-01-11T23:56:09.317Z,5.22
2019-01-11T23:58:39.510Z,9.73
